sensor_id;sensor_type;location;lat;lon;timestamp;P1;durP1;ratioP1;P2;durP2;ratioP2
14510;SDS011;7341;50.930;4.038;2022-10-31T00:00:15;16.77;;;11.00;;
14510;SDS011;7341;50.930;4.038;2022-10-31T00:02:42;16.20;;;11.53;;
14510;SDS011;7341;50.930;4.038;2022-10-31T00:05:09;24.20;;;11.07;;
14510;SDS011;7341;50.930;4.038;2022-10-31T00:07:37;20.93;;;11.27;;
14510;SDS011;7341;50.930;4.038;2022-10-31T00:10:04;14.73;;;11.60;;
14510;SDS011;7341;50.930;4.038;2022-10-31T00:12:32;16.83;;;11.13;;
14510;SDS011;7341;50.930;4.038;2022-10-31T00:14:59;17.10;;;11.90;;
14510;SDS011;7341;50.930;4.038;2022-10-31T00:17:27;17.27;;;11.53;;
14510;SDS011;7341;50.930;4.038;2022-10-31T00:19:56;18.53;;;10.80;;
14510;SDS011;7341;50.930;4.038;2022-10-31T00:22:23;15.93;;;11.80;;
14510;SDS011;7341;50.930;4.038;2022-10-31T00:24:49;20.30;;;11.70;;
14510;SDS011;7341;50.930;4.038;2022-10-31T00:27:16;13.83;;;11.30;;
14510;SDS011;7341;50.930;4.038;2022-10-31T00:29:43;18.23;;;11.83;;
14510;SDS011;7341;50.930;4.038;2022-10-31T00:32:10;20.80;;;12.80;;
14510;SDS011;7341;50.930;4.038;2022-10-31T00:34:38;19.83;;;11.80;;
14510;SDS011;7341;50.930;4.038;2022-10-31T00:37:06;15.67;;;11.77;;
14510;SDS011;7341;50.930;4.038;2022-10-31T00:39:32;17.33;;;11.80;;
14510;SDS011;7341;50.930;4.038;2022-10-31T00:41:59;18.50;;;11.43;;
14510;SDS011;7341;50.930;4.038;2022-10-31T00:44:26;19.73;;;11.77;;
14510;SDS011;7341;50.930;4.038;2022-10-31T00:46:53;21.67;;;12.73;;
14510;SDS011;7341;50.930;4.038;2022-10-31T00:49:20;20.33;;;12.13;;
14510;SDS011;7341;50.930;4.038;2022-10-31T00:51:52;23.10;;;13.68;;
14510;SDS011;7341;50.930;4.038;2022-10-31T00:54:20;16.20;;;12.27;;
14510;SDS011;7341;50.930;4.038;2022-10-31T00:56:47;22.70;;;12.97;;
14510;SDS011;7341;50.930;4.038;2022-10-31T00:59:13;22.53;;;13.87;;
14510;SDS011;7341;50.930;4.038;2022-10-31T01:01:40;19.20;;;11.77;;
14510;SDS011;7341;50.930;4.038;2022-10-31T01:04:07;21.07;;;12.30;;
14510;SDS011;7341;50.930;4.038;2022-10-31T01:06:34;23.27;;;12.17;;
14510;SDS011;7341;50.930;4.038;2022-10-31T01:09:02;21.03;;;11.90;;
14510;SDS011;7341;50.930;4.038;2022-10-31T01:11:29;22.43;;;12.50;;
14510;SDS011;7341;50.930;4.038;2022-10-31T01:13:55;26.10;;;12.47;;
14510;SDS011;7341;50.930;4.038;2022-10-31T01:16:24;20.93;;;12.47;;
14510;SDS011;7341;50.930;4.038;2022-10-31T01:18:53;21.83;;;12.63;;
14510;SDS011;7341;50.930;4.038;2022-10-31T01:21:23;19.20;;;12.10;;
14510;SDS011;7341;50.930;4.038;2022-10-31T01:23:53;19.40;;;12.13;;
14510;SDS011;7341;50.930;4.038;2022-10-31T01:26:23;21.97;;;12.77;;
14510;SDS011;7341;50.930;4.038;2022-10-31T01:28:53;21.07;;;12.73;;
14510;SDS011;7341;50.930;4.038;2022-10-31T01:31:22;20.03;;;11.17;;
14510;SDS011;7341;50.930;4.038;2022-10-31T01:33:50;21.67;;;12.13;;
14510;SDS011;7341;50.930;4.038;2022-10-31T01:36:18;21.50;;;12.47;;
14510;SDS011;7341;50.930;4.038;2022-10-31T01:38:46;22.17;;;13.60;;
14510;SDS011;7341;50.930;4.038;2022-10-31T01:41:17;26.17;;;12.47;;
14510;SDS011;7341;50.930;4.038;2022-10-31T01:43:48;16.93;;;11.57;;
14510;SDS011;7341;50.930;4.038;2022-10-31T01:46:19;20.07;;;11.63;;
14510;SDS011;7341;50.930;4.038;2022-10-31T01:48:49;17.67;;;11.80;;
14510;SDS011;7341;50.930;4.038;2022-10-31T01:51:17;21.30;;;13.77;;
14510;SDS011;7341;50.930;4.038;2022-10-31T01:53:46;19.53;;;12.47;;
14510;SDS011;7341;50.930;4.038;2022-10-31T01:56:15;21.90;;;12.67;;
14510;SDS011;7341;50.930;4.038;2022-10-31T01:58:44;18.80;;;12.00;;
14510;SDS011;7341;50.930;4.038;2022-10-31T02:01:14;21.30;;;13.03;;
14510;SDS011;7341;50.930;4.038;2022-10-31T02:03:43;19.53;;;11.70;;
14510;SDS011;7341;50.930;4.038;2022-10-31T02:06:13;19.47;;;12.37;;
14510;SDS011;7341;50.930;4.038;2022-10-31T02:08:47;23.07;;;12.63;;
14510;SDS011;7341;50.930;4.038;2022-10-31T02:11:15;17.63;;;11.60;;
14510;SDS011;7341;50.930;4.038;2022-10-31T02:13:43;18.30;;;11.60;;
14510;SDS011;7341;50.930;4.038;2022-10-31T02:16:11;20.10;;;12.53;;
14510;SDS011;7341;50.930;4.038;2022-10-31T02:18:38;18.87;;;11.77;;
14510;SDS011;7341;50.930;4.038;2022-10-31T02:21:10;19.67;;;12.13;;
14510;SDS011;7341;50.930;4.038;2022-10-31T02:24:00;20.57;;;12.53;;
14510;SDS011;7341;50.930;4.038;2022-10-31T02:26:51;17.67;;;11.13;;
14510;SDS011;7341;50.930;4.038;2022-10-31T02:29:27;21.63;;;12.13;;
14510;SDS011;7341;50.930;4.038;2022-10-31T02:32:16;17.00;;;11.90;;
14510;SDS011;7341;50.930;4.038;2022-10-31T02:34:50;17.47;;;11.47;;
14510;SDS011;7341;50.930;4.038;2022-10-31T02:37:25;15.17;;;12.03;;
14510;SDS011;7341;50.930;4.038;2022-10-31T02:39:56;21.20;;;12.67;;
14510;SDS011;7341;50.930;4.038;2022-10-31T02:42:32;17.13;;;12.30;;
14510;SDS011;7341;50.930;4.038;2022-10-31T02:45:05;18.33;;;12.43;;
14510;SDS011;7341;50.930;4.038;2022-10-31T02:47:42;25.60;;;16.75;;
14510;SDS011;7341;50.930;4.038;2022-10-31T02:50:11;24.97;;;13.97;;
14510;SDS011;7341;50.930;4.038;2022-10-31T02:52:42;20.43;;;12.77;;
14510;SDS011;7341;50.930;4.038;2022-10-31T02:55:10;18.57;;;11.73;;
14510;SDS011;7341;50.930;4.038;2022-10-31T02:57:39;17.20;;;12.77;;
14510;SDS011;7341;50.930;4.038;2022-10-31T03:00:08;18.93;;;12.37;;
14510;SDS011;7341;50.930;4.038;2022-10-31T03:02:49;18.33;;;12.53;;
14510;SDS011;7341;50.930;4.038;2022-10-31T03:05:32;18.97;;;11.60;;
14510;SDS011;7341;50.930;4.038;2022-10-31T03:08:09;16.40;;;11.70;;
14510;SDS011;7341;50.930;4.038;2022-10-31T03:10:42;21.63;;;12.87;;
14510;SDS011;7341;50.930;4.038;2022-10-31T03:13:16;25.53;;;11.93;;
14510;SDS011;7341;50.930;4.038;2022-10-31T03:15:51;24.23;;;12.07;;
14510;SDS011;7341;50.930;4.038;2022-10-31T03:18:24;19.07;;;11.83;;
14510;SDS011;7341;50.930;4.038;2022-10-31T03:20:55;15.47;;;11.50;;
14510;SDS011;7341;50.930;4.038;2022-10-31T03:23:27;18.40;;;12.13;;
14510;SDS011;7341;50.930;4.038;2022-10-31T03:25:56;18.07;;;12.20;;
14510;SDS011;7341;50.930;4.038;2022-10-31T03:28:29;21.10;;;12.80;;
14510;SDS011;7341;50.930;4.038;2022-10-31T03:31:01;25.33;;;12.23;;
14510;SDS011;7341;50.930;4.038;2022-10-31T03:33:32;21.20;;;12.80;;
14510;SDS011;7341;50.930;4.038;2022-10-31T03:36:02;26.27;;;13.10;;
14510;SDS011;7341;50.930;4.038;2022-10-31T03:38:33;19.97;;;12.67;;
14510;SDS011;7341;50.930;4.038;2022-10-31T03:41:02;22.70;;;13.50;;
14510;SDS011;7341;50.930;4.038;2022-10-31T03:43:32;21.50;;;14.35;;
14510;SDS011;7341;50.930;4.038;2022-10-31T03:46:03;22.23;;;13.10;;
14510;SDS011;7341;50.930;4.038;2022-10-31T03:48:33;22.10;;;12.30;;
14510;SDS011;7341;50.930;4.038;2022-10-31T03:51:01;22.80;;;12.97;;
14510;SDS011;7341;50.930;4.038;2022-10-31T03:53:34;19.83;;;12.57;;
14510;SDS011;7341;50.930;4.038;2022-10-31T03:56:06;18.27;;;12.93;;
14510;SDS011;7341;50.930;4.038;2022-10-31T03:58:38;19.43;;;12.67;;
14510;SDS011;7341;50.930;4.038;2022-10-31T04:01:11;22.80;;;12.50;;
14510;SDS011;7341;50.930;4.038;2022-10-31T04:03:43;19.40;;;12.13;;
14510;SDS011;7341;50.930;4.038;2022-10-31T04:06:11;21.73;;;13.07;;
14510;SDS011;7341;50.930;4.038;2022-10-31T04:08:42;14.80;;;11.53;;
14510;SDS011;7341;50.930;4.038;2022-10-31T04:11:14;20.43;;;11.50;;
14510;SDS011;7341;50.930;4.038;2022-10-31T04:13:44;20.80;;;13.87;;
14510;SDS011;7341;50.930;4.038;2022-10-31T04:16:14;18.87;;;12.07;;
14510;SDS011;7341;50.930;4.038;2022-10-31T04:18:43;18.50;;;11.27;;
14510;SDS011;7341;50.930;4.038;2022-10-31T04:21:10;16.10;;;10.80;;
14510;SDS011;7341;50.930;4.038;2022-10-31T04:23:41;15.63;;;10.70;;
14510;SDS011;7341;50.930;4.038;2022-10-31T04:26:08;18.50;;;11.40;;
14510;SDS011;7341;50.930;4.038;2022-10-31T04:28:37;18.57;;;10.40;;
14510;SDS011;7341;50.930;4.038;2022-10-31T04:31:06;20.70;;;11.70;;
14510;SDS011;7341;50.930;4.038;2022-10-31T04:33:35;16.63;;;11.17;;
14510;SDS011;7341;50.930;4.038;2022-10-31T04:36:04;18.67;;;11.97;;
14510;SDS011;7341;50.930;4.038;2022-10-31T04:38:33;15.77;;;11.60;;
14510;SDS011;7341;50.930;4.038;2022-10-31T04:41:00;18.73;;;12.00;;
14510;SDS011;7341;50.930;4.038;2022-10-31T04:43:28;16.90;;;11.30;;
14510;SDS011;7341;50.930;4.038;2022-10-31T04:45:57;18.67;;;10.93;;
14510;SDS011;7341;50.930;4.038;2022-10-31T04:48:24;17.50;;;10.77;;
14510;SDS011;7341;50.930;4.038;2022-10-31T04:50:51;16.00;;;11.03;;
14510;SDS011;7341;50.930;4.038;2022-10-31T04:53:20;17.40;;;10.90;;
14510;SDS011;7341;50.930;4.038;2022-10-31T04:55:47;17.70;;;11.00;;
14510;SDS011;7341;50.930;4.038;2022-10-31T04:58:13;19.63;;;11.57;;
14510;SDS011;7341;50.930;4.038;2022-10-31T05:00:40;16.83;;;11.63;;
14510;SDS011;7341;50.930;4.038;2022-10-31T05:03:07;15.97;;;10.43;;
14510;SDS011;7341;50.930;4.038;2022-10-31T05:05:34;16.40;;;11.20;;
14510;SDS011;7341;50.930;4.038;2022-10-31T05:08:01;19.53;;;10.97;;
14510;SDS011;7341;50.930;4.038;2022-10-31T05:10:30;20.40;;;10.77;;
14510;SDS011;7341;50.930;4.038;2022-10-31T05:12:58;17.00;;;11.90;;
14510;SDS011;7341;50.930;4.038;2022-10-31T05:15:26;22.30;;;12.20;;
14510;SDS011;7341;50.930;4.038;2022-10-31T05:17:54;18.03;;;11.40;;
14510;SDS011;7341;50.930;4.038;2022-10-31T05:20:22;19.70;;;12.70;;
14510;SDS011;7341;50.930;4.038;2022-10-31T05:22:50;21.73;;;13.23;;
14510;SDS011;7341;50.930;4.038;2022-10-31T05:25:19;23.03;;;13.17;;
14510;SDS011;7341;50.930;4.038;2022-10-31T05:27:49;23.80;;;13.33;;
14510;SDS011;7341;50.930;4.038;2022-10-31T05:30:18;18.93;;;12.33;;
14510;SDS011;7341;50.930;4.038;2022-10-31T05:32:47;19.00;;;12.37;;
14510;SDS011;7341;50.930;4.038;2022-10-31T05:35:17;17.83;;;12.10;;
14510;SDS011;7341;50.930;4.038;2022-10-31T05:37:45;23.90;;;13.73;;
14510;SDS011;7341;50.930;4.038;2022-10-31T05:40:13;19.13;;;12.20;;
14510;SDS011;7341;50.930;4.038;2022-10-31T05:42:41;25.87;;;13.83;;
14510;SDS011;7341;50.930;4.038;2022-10-31T05:45:11;29.05;;;18.23;;
14510;SDS011;7341;50.930;4.038;2022-10-31T05:47:40;21.17;;;14.93;;
14510;SDS011;7341;50.930;4.038;2022-10-31T05:50:07;23.97;;;13.73;;
14510;SDS011;7341;50.930;4.038;2022-10-31T05:52:35;19.80;;;13.67;;
14510;SDS011;7341;50.930;4.038;2022-10-31T05:55:02;23.20;;;13.87;;
14510;SDS011;7341;50.930;4.038;2022-10-31T05:57:31;24.73;;;14.17;;
14510;SDS011;7341;50.930;4.038;2022-10-31T05:59:58;24.50;;;13.97;;
14510;SDS011;7341;50.930;4.038;2022-10-31T06:02:31;20.03;;;14.13;;
14510;SDS011;7341;50.930;4.038;2022-10-31T06:04:59;21.13;;;13.17;;
14510;SDS011;7341;50.930;4.038;2022-10-31T06:07:26;23.83;;;13.20;;
14510;SDS011;7341;50.930;4.038;2022-10-31T06:09:53;19.33;;;13.87;;
14510;SDS011;7341;50.930;4.038;2022-10-31T06:12:20;20.77;;;14.00;;
14510;SDS011;7341;50.930;4.038;2022-10-31T06:14:46;49.77;;;15.90;;
14510;SDS011;7341;50.930;4.038;2022-10-31T06:17:13;24.17;;;14.17;;
14510;SDS011;7341;50.930;4.038;2022-10-31T06:19:42;22.00;;;13.37;;
14510;SDS011;7341;50.930;4.038;2022-10-31T06:22:09;24.40;;;14.23;;
14510;SDS011;7341;50.930;4.038;2022-10-31T06:24:37;20.70;;;13.77;;
14510;SDS011;7341;50.930;4.038;2022-10-31T06:27:04;21.57;;;14.07;;
14510;SDS011;7341;50.930;4.038;2022-10-31T06:29:31;24.03;;;13.57;;
14510;SDS011;7341;50.930;4.038;2022-10-31T06:31:58;20.30;;;13.70;;
14510;SDS011;7341;50.930;4.038;2022-10-31T06:34:25;21.43;;;12.77;;
14510;SDS011;7341;50.930;4.038;2022-10-31T06:36:53;23.37;;;14.27;;
14510;SDS011;7341;50.930;4.038;2022-10-31T06:39:19;22.13;;;14.43;;
14510;SDS011;7341;50.930;4.038;2022-10-31T06:41:47;20.50;;;14.23;;
14510;SDS011;7341;50.930;4.038;2022-10-31T06:44:15;19.43;;;13.43;;
14510;SDS011;7341;50.930;4.038;2022-10-31T06:46:41;22.67;;;13.97;;
14510;SDS011;7341;50.930;4.038;2022-10-31T06:49:08;20.47;;;13.97;;
14510;SDS011;7341;50.930;4.038;2022-10-31T06:51:35;20.43;;;13.60;;
14510;SDS011;7341;50.930;4.038;2022-10-31T06:54:03;21.83;;;13.60;;
14510;SDS011;7341;50.930;4.038;2022-10-31T06:56:31;17.50;;;12.70;;
14510;SDS011;7341;50.930;4.038;2022-10-31T06:58:58;20.67;;;13.00;;
14510;SDS011;7341;50.930;4.038;2022-10-31T07:01:25;21.33;;;14.03;;
14510;SDS011;7341;50.930;4.038;2022-10-31T07:03:52;18.60;;;13.33;;
14510;SDS011;7341;50.930;4.038;2022-10-31T07:06:19;18.10;;;13.10;;
14510;SDS011;7341;50.930;4.038;2022-10-31T07:08:46;17.87;;;12.73;;
14510;SDS011;7341;50.930;4.038;2022-10-31T07:11:15;26.00;;;13.93;;
14510;SDS011;7341;50.930;4.038;2022-10-31T07:13:42;19.07;;;13.80;;
14510;SDS011;7341;50.930;4.038;2022-10-31T07:16:08;19.37;;;13.30;;
14510;SDS011;7341;50.930;4.038;2022-10-31T07:18:36;22.23;;;14.03;;
14510;SDS011;7341;50.930;4.038;2022-10-31T07:21:03;20.27;;;13.50;;
14510;SDS011;7341;50.930;4.038;2022-10-31T07:23:31;18.03;;;13.20;;
14510;SDS011;7341;50.930;4.038;2022-10-31T07:25:58;23.60;;;12.97;;
14510;SDS011;7341;50.930;4.038;2022-10-31T07:28:27;19.07;;;12.73;;
14510;SDS011;7341;50.930;4.038;2022-10-31T07:30:54;20.17;;;13.67;;
14510;SDS011;7341;50.930;4.038;2022-10-31T07:33:22;25.13;;;13.97;;
14510;SDS011;7341;50.930;4.038;2022-10-31T07:35:52;17.20;;;12.93;;
14510;SDS011;7341;50.930;4.038;2022-10-31T07:38:19;19.27;;;13.23;;
14510;SDS011;7341;50.930;4.038;2022-10-31T07:40:49;22.50;;;13.87;;
14510;SDS011;7341;50.930;4.038;2022-10-31T07:43:16;19.57;;;13.90;;
14510;SDS011;7341;50.930;4.038;2022-10-31T07:45:45;20.27;;;13.13;;
14510;SDS011;7341;50.930;4.038;2022-10-31T07:48:15;19.90;;;13.40;;
14510;SDS011;7341;50.930;4.038;2022-10-31T07:50:42;18.80;;;13.73;;
14510;SDS011;7341;50.930;4.038;2022-10-31T07:53:09;20.30;;;13.23;;
14510;SDS011;7341;50.930;4.038;2022-10-31T07:55:37;18.60;;;13.87;;
14510;SDS011;7341;50.930;4.038;2022-10-31T07:58:05;24.40;;;14.17;;
14510;SDS011;7341;50.930;4.038;2022-10-31T08:00:33;20.63;;;13.67;;
14510;SDS011;7341;50.930;4.038;2022-10-31T08:03:05;17.67;;;13.07;;
14510;SDS011;7341;50.930;4.038;2022-10-31T08:05:34;18.50;;;12.87;;
14510;SDS011;7341;50.930;4.038;2022-10-31T08:08:01;28.57;;;14.27;;
14510;SDS011;7341;50.930;4.038;2022-10-31T08:10:28;19.37;;;13.77;;
14510;SDS011;7341;50.930;4.038;2022-10-31T08:12:55;22.37;;;14.17;;
14510;SDS011;7341;50.930;4.038;2022-10-31T08:15:24;15.40;;;12.43;;
14510;SDS011;7341;50.930;4.038;2022-10-31T08:17:51;19.83;;;12.33;;
14510;SDS011;7341;50.930;4.038;2022-10-31T08:20:20;18.43;;;13.03;;
14510;SDS011;7341;50.930;4.038;2022-10-31T08:22:54;18.83;;;12.90;;
14510;SDS011;7341;50.930;4.038;2022-10-31T08:25:22;20.00;;;13.80;;
14510;SDS011;7341;50.930;4.038;2022-10-31T08:27:50;19.27;;;12.87;;
14510;SDS011;7341;50.930;4.038;2022-10-31T08:30:17;18.67;;;12.73;;
14510;SDS011;7341;50.930;4.038;2022-10-31T08:32:45;21.73;;;12.60;;
14510;SDS011;7341;50.930;4.038;2022-10-31T08:35:12;20.77;;;13.10;;
14510;SDS011;7341;50.930;4.038;2022-10-31T08:37:43;17.97;;;12.67;;
14510;SDS011;7341;50.930;4.038;2022-10-31T08:40:10;22.43;;;12.53;;
14510;SDS011;7341;50.930;4.038;2022-10-31T08:42:38;19.13;;;13.27;;
14510;SDS011;7341;50.930;4.038;2022-10-31T08:47:42;23.07;;;12.90;;
14510;SDS011;7341;50.930;4.038;2022-10-31T08:50:14;16.57;;;12.77;;
14510;SDS011;7341;50.930;4.038;2022-10-31T08:52:46;18.00;;;12.70;;
14510;SDS011;7341;50.930;4.038;2022-10-31T08:55:19;18.73;;;13.33;;
14510;SDS011;7341;50.930;4.038;2022-10-31T08:57:46;19.20;;;12.87;;
14510;SDS011;7341;50.930;4.038;2022-10-31T09:00:15;24.83;;;15.10;;
14510;SDS011;7341;50.930;4.038;2022-10-31T09:02:42;25.20;;;15.57;;
14510;SDS011;7341;50.930;4.038;2022-10-31T09:05:09;25.03;;;14.67;;
14510;SDS011;7341;50.930;4.038;2022-10-31T09:07:35;19.77;;;13.33;;
14510;SDS011;7341;50.930;4.038;2022-10-31T09:10:04;20.43;;;12.80;;
14510;SDS011;7341;50.930;4.038;2022-10-31T09:12:31;25.33;;;13.73;;
14510;SDS011;7341;50.930;4.038;2022-10-31T09:14:58;19.30;;;13.60;;
14510;SDS011;7341;50.930;4.038;2022-10-31T09:17:26;18.33;;;13.77;;
14510;SDS011;7341;50.930;4.038;2022-10-31T09:19:54;24.17;;;14.03;;
14510;SDS011;7341;50.930;4.038;2022-10-31T09:22:20;21.87;;;12.80;;
14510;SDS011;7341;50.930;4.038;2022-10-31T09:24:47;17.20;;;12.70;;
14510;SDS011;7341;50.930;4.038;2022-10-31T09:29:45;20.83;;;14.07;;
14510;SDS011;7341;50.930;4.038;2022-10-31T09:32:12;17.57;;;12.90;;
14510;SDS011;7341;50.930;4.038;2022-10-31T09:34:39;18.83;;;13.20;;
14510;SDS011;7341;50.930;4.038;2022-10-31T09:37:06;23.37;;;13.07;;
14510;SDS011;7341;50.930;4.038;2022-10-31T09:39:35;20.27;;;13.60;;
14510;SDS011;7341;50.930;4.038;2022-10-31T09:42:04;22.17;;;13.10;;
14510;SDS011;7341;50.930;4.038;2022-10-31T09:44:51;22.13;;;13.93;;
14510;SDS011;7341;50.930;4.038;2022-10-31T09:47:29;17.83;;;13.77;;
14510;SDS011;7341;50.930;4.038;2022-10-31T09:50:14;26.03;;;14.73;;
14510;SDS011;7341;50.930;4.038;2022-10-31T09:52:45;26.08;;;18.10;;
14510;SDS011;7341;50.930;4.038;2022-10-31T09:55:20;24.70;;;15.10;;
14510;SDS011;7341;50.930;4.038;2022-10-31T09:57:53;21.63;;;14.37;;
14510;SDS011;7341;50.930;4.038;2022-10-31T10:00:22;21.50;;;15.17;;
14510;SDS011;7341;50.930;4.038;2022-10-31T10:02:50;21.07;;;13.97;;
14510;SDS011;7341;50.930;4.038;2022-10-31T10:05:24;21.40;;;14.67;;
14510;SDS011;7341;50.930;4.038;2022-10-31T10:07:59;22.93;;;14.57;;
14510;SDS011;7341;50.930;4.038;2022-10-31T10:10:37;25.50;;;14.90;;
14510;SDS011;7341;50.930;4.038;2022-10-31T10:13:19;24.13;;;13.63;;
14510;SDS011;7341;50.930;4.038;2022-10-31T10:16:00;19.67;;;13.23;;
14510;SDS011;7341;50.930;4.038;2022-10-31T10:18:37;24.20;;;13.77;;
14510;SDS011;7341;50.930;4.038;2022-10-31T10:21:12;15.97;;;12.70;;
14510;SDS011;7341;50.930;4.038;2022-10-31T10:23:51;20.53;;;12.90;;
14510;SDS011;7341;50.930;4.038;2022-10-31T10:26:29;17.90;;;12.40;;
14510;SDS011;7341;50.930;4.038;2022-10-31T10:29:02;20.30;;;12.23;;
14510;SDS011;7341;50.930;4.038;2022-10-31T10:31:52;15.80;;;11.70;;
14510;SDS011;7341;50.930;4.038;2022-10-31T10:34:21;18.50;;;12.73;;
14510;SDS011;7341;50.930;4.038;2022-10-31T10:36:53;20.43;;;12.90;;
14510;SDS011;7341;50.930;4.038;2022-10-31T10:39:25;17.73;;;12.13;;
14510;SDS011;7341;50.930;4.038;2022-10-31T10:41:55;16.70;;;12.30;;
14510;SDS011;7341;50.930;4.038;2022-10-31T10:44:43;18.87;;;13.30;;
14510;SDS011;7341;50.930;4.038;2022-10-31T10:47:31;18.20;;;12.30;;
14510;SDS011;7341;50.930;4.038;2022-10-31T10:50:03;17.60;;;12.43;;
14510;SDS011;7341;50.930;4.038;2022-10-31T10:52:37;17.85;;;13.02;;
14510;SDS011;7341;50.930;4.038;2022-10-31T10:55:14;14.80;;;11.90;;
14510;SDS011;7341;50.930;4.038;2022-10-31T10:57:48;17.33;;;11.87;;
14510;SDS011;7341;50.930;4.038;2022-10-31T11:00:22;17.87;;;11.87;;
14510;SDS011;7341;50.930;4.038;2022-10-31T11:02:51;19.07;;;11.70;;
14510;SDS011;7341;50.930;4.038;2022-10-31T11:05:22;18.50;;;12.03;;
14510;SDS011;7341;50.930;4.038;2022-10-31T11:07:52;16.67;;;12.20;;
14510;SDS011;7341;50.930;4.038;2022-10-31T11:10:18;15.77;;;11.70;;
14510;SDS011;7341;50.930;4.038;2022-10-31T11:13:00;14.63;;;11.83;;
14510;SDS011;7341;50.930;4.038;2022-10-31T11:15:32;16.70;;;11.90;;
14510;SDS011;7341;50.930;4.038;2022-10-31T11:18:04;16.00;;;11.23;;
14510;SDS011;7341;50.930;4.038;2022-10-31T11:20:31;17.70;;;11.80;;
14510;SDS011;7341;50.930;4.038;2022-10-31T11:23:01;16.03;;;12.50;;
14510;SDS011;7341;50.930;4.038;2022-10-31T11:25:47;17.33;;;12.43;;
14510;SDS011;7341;50.930;4.038;2022-10-31T11:28:16;21.67;;;11.97;;
14510;SDS011;7341;50.930;4.038;2022-10-31T11:30:44;16.07;;;11.53;;
14510;SDS011;7341;50.930;4.038;2022-10-31T11:33:16;15.97;;;11.70;;
14510;SDS011;7341;50.930;4.038;2022-10-31T11:35:48;16.73;;;12.33;;
14510;SDS011;7341;50.930;4.038;2022-10-31T11:38:16;14.87;;;12.23;;
14510;SDS011;7341;50.930;4.038;2022-10-31T11:40:57;18.73;;;11.57;;
14510;SDS011;7341;50.930;4.038;2022-10-31T11:43:29;15.13;;;12.17;;
14510;SDS011;7341;50.930;4.038;2022-10-31T11:45:56;20.00;;;11.67;;
14510;SDS011;7341;50.930;4.038;2022-10-31T11:48:25;15.23;;;11.47;;
14510;SDS011;7341;50.930;4.038;2022-10-31T11:50:52;18.50;;;11.67;;
14510;SDS011;7341;50.930;4.038;2022-10-31T11:53:24;18.67;;;12.70;;
14510;SDS011;7341;50.930;4.038;2022-10-31T11:56:04;17.50;;;11.80;;
14510;SDS011;7341;50.930;4.038;2022-10-31T11:58:35;14.70;;;11.57;;
14510;SDS011;7341;50.930;4.038;2022-10-31T12:01:02;17.93;;;12.43;;
14510;SDS011;7341;50.930;4.038;2022-10-31T12:03:43;15.03;;;11.27;;
14510;SDS011;7341;50.930;4.038;2022-10-31T12:06:18;18.73;;;11.50;;
14510;SDS011;7341;50.930;4.038;2022-10-31T12:08:49;18.23;;;11.20;;
14510;SDS011;7341;50.930;4.038;2022-10-31T12:11:33;16.37;;;11.90;;
14510;SDS011;7341;50.930;4.038;2022-10-31T12:14:13;12.67;;;10.77;;
14510;SDS011;7341;50.930;4.038;2022-10-31T12:16:48;20.70;;;11.10;;
14510;SDS011;7341;50.930;4.038;2022-10-31T12:19:24;16.57;;;10.80;;
14510;SDS011;7341;50.930;4.038;2022-10-31T12:22:04;15.50;;;11.13;;
14510;SDS011;7341;50.930;4.038;2022-10-31T12:24:41;18.30;;;11.03;;
14510;SDS011;7341;50.930;4.038;2022-10-31T12:27:23;17.73;;;11.87;;
14510;SDS011;7341;50.930;4.038;2022-10-31T12:30:09;17.67;;;10.60;;
14510;SDS011;7341;50.930;4.038;2022-10-31T12:32:46;15.60;;;9.57;;
14510;SDS011;7341;50.930;4.038;2022-10-31T12:35:25;13.00;;;9.93;;
14510;SDS011;7341;50.930;4.038;2022-10-31T12:38:12;13.07;;;9.47;;
14510;SDS011;7341;50.930;4.038;2022-10-31T12:40:59;14.30;;;9.90;;
14510;SDS011;7341;50.930;4.038;2022-10-31T12:43:38;13.53;;;10.13;;
14510;SDS011;7341;50.930;4.038;2022-10-31T12:46:15;14.27;;;10.10;;
14510;SDS011;7341;50.930;4.038;2022-10-31T12:49:01;17.20;;;11.03;;
14510;SDS011;7341;50.930;4.038;2022-10-31T12:51:51;14.03;;;10.67;;
14510;SDS011;7341;50.930;4.038;2022-10-31T12:54:39;20.87;;;11.33;;
14510;SDS011;7341;50.930;4.038;2022-10-31T12:57:21;16.10;;;12.18;;
14510;SDS011;7341;50.930;4.038;2022-10-31T12:59:53;15.70;;;10.87;;
14510;SDS011;7341;50.930;4.038;2022-10-31T13:02:29;15.23;;;9.97;;
14510;SDS011;7341;50.930;4.038;2022-10-31T13:05:02;17.60;;;11.00;;
14510;SDS011;7341;50.930;4.038;2022-10-31T13:07:34;17.87;;;10.87;;
14510;SDS011;7341;50.930;4.038;2022-10-31T13:10:06;14.40;;;10.70;;
14510;SDS011;7341;50.930;4.038;2022-10-31T13:12:40;18.20;;;10.07;;
14510;SDS011;7341;50.930;4.038;2022-10-31T13:15:12;16.50;;;9.53;;
14510;SDS011;7341;50.930;4.038;2022-10-31T13:17:42;13.80;;;9.57;;
14510;SDS011;7341;50.930;4.038;2022-10-31T13:20:17;15.07;;;9.87;;
14510;SDS011;7341;50.930;4.038;2022-10-31T13:22:51;16.93;;;11.13;;
14510;SDS011;7341;50.930;4.038;2022-10-31T13:25:21;17.70;;;9.30;;
14510;SDS011;7341;50.930;4.038;2022-10-31T13:27:51;15.43;;;9.57;;
14510;SDS011;7341;50.930;4.038;2022-10-31T13:30:21;14.90;;;8.67;;
14510;SDS011;7341;50.930;4.038;2022-10-31T13:32:51;18.30;;;9.87;;
14510;SDS011;7341;50.930;4.038;2022-10-31T13:35:24;14.33;;;8.13;;
14510;SDS011;7341;50.930;4.038;2022-10-31T13:38:00;12.43;;;7.67;;
14510;SDS011;7341;50.930;4.038;2022-10-31T13:40:37;13.97;;;7.77;;
14510;SDS011;7341;50.930;4.038;2022-10-31T13:43:11;15.03;;;7.20;;
14510;SDS011;7341;50.930;4.038;2022-10-31T13:45:47;10.90;;;6.97;;
14510;SDS011;7341;50.930;4.038;2022-10-31T13:48:31;11.70;;;6.53;;
14510;SDS011;7341;50.930;4.038;2022-10-31T13:51:02;18.70;;;6.53;;
14510;SDS011;7341;50.930;4.038;2022-10-31T13:53:37;13.20;;;6.77;;
14510;SDS011;7341;50.930;4.038;2022-10-31T13:56:12;12.47;;;5.77;;
14510;SDS011;7341;50.930;4.038;2022-10-31T13:58:42;11.53;;;5.87;;
14510;SDS011;7341;50.930;4.038;2022-10-31T14:01:24;11.70;;;5.90;;
14510;SDS011;7341;50.930;4.038;2022-10-31T14:03:58;16.37;;;6.53;;
14510;SDS011;7341;50.930;4.038;2022-10-31T14:06:35;13.47;;;6.43;;
14510;SDS011;7341;50.930;4.038;2022-10-31T14:09:06;16.70;;;6.80;;
14510;SDS011;7341;50.930;4.038;2022-10-31T14:11:46;12.90;;;6.40;;
14510;SDS011;7341;50.930;4.038;2022-10-31T14:14:16;8.67;;;6.17;;
14510;SDS011;7341;50.930;4.038;2022-10-31T14:16:44;12.33;;;6.33;;
14510;SDS011;7341;50.930;4.038;2022-10-31T14:19:17;12.20;;;6.50;;
14510;SDS011;7341;50.930;4.038;2022-10-31T14:21:46;14.53;;;6.37;;
14510;SDS011;7341;50.930;4.038;2022-10-31T14:24:15;10.73;;;6.60;;
14510;SDS011;7341;50.930;4.038;2022-10-31T14:27:00;14.50;;;6.60;;
14510;SDS011;7341;50.930;4.038;2022-10-31T14:29:29;10.87;;;6.43;;
14510;SDS011;7341;50.930;4.038;2022-10-31T14:31:58;14.10;;;6.50;;
14510;SDS011;7341;50.930;4.038;2022-10-31T14:34:33;13.73;;;6.67;;
14510;SDS011;7341;50.930;4.038;2022-10-31T14:40:00;12.80;;;6.20;;
14510;SDS011;7341;50.930;4.038;2022-10-31T14:45:49;10.00;;;6.33;;
14510;SDS011;7341;50.930;4.038;2022-10-31T14:48:29;15.40;;;6.47;;
14510;SDS011;7341;50.930;4.038;2022-10-31T14:51:19;11.63;;;6.70;;
14510;SDS011;7341;50.930;4.038;2022-10-31T14:53:48;13.70;;;6.57;;
14510;SDS011;7341;50.930;4.038;2022-10-31T14:56:24;12.27;;;6.53;;
14510;SDS011;7341;50.930;4.038;2022-10-31T14:58:53;11.67;;;5.63;;
14510;SDS011;7341;50.930;4.038;2022-10-31T15:01:24;14.45;;;6.30;;
14510;SDS011;7341;50.930;4.038;2022-10-31T15:03:55;11.83;;;5.37;;
14510;SDS011;7341;50.930;4.038;2022-10-31T15:06:27;11.57;;;6.13;;
14510;SDS011;7341;50.930;4.038;2022-10-31T15:08:57;15.30;;;6.17;;